Time;durP1;ratioP1;P1;durP2;ratioP2;P2;SDS_P1;SDS_P2;PMS_P1;PMS_P2;Temp;Humidity;BMP_temperature;BMP_pressure;BME280_temperature;BME280_humidity;BME280_pressure;Samples;Min_cycle;Max_cycle;Signal;HPM_P1;HPM_P2
2022/05/29 00:00:34;;;;;;;1.05;0.63;;;21.10;52.50;;;;;;6197360;28;20030;-75
2022/05/29 00:03:35;;;;;;;1.40;0.80;;;21.10;52.40;;;;;;6195908;28;20432;-74
2022/05/29 00:06:39;;;;;;;1.35;0.80;;;21.10;52.50;;;;;;6196666;28;20050;-75
2022/05/29 00:09:42;;;;;;;0.90;0.70;;;21.20;52.40;;;;;;6182662;28;20082;-75
2022/05/29 00:12:43;;;;;;;0.75;0.60;;;21.10;52.40;;;;;;6172286;28;20019;-75
2022/05/29 00:15:44;;;;;;;0.93;0.80;;;21.10;52.40;;;;;;6172067;28;20513;-75
2022/05/29 00:18:44;;;;;;;1.00;0.90;;;21.10;52.40;;;;;;6154700;28;20146;-74
2022/05/29 00:21:45;;;;;;;0.93;0.60;;;21.10;52.40;;;;;;6172479;28;20088;-75
2022/05/29 00:24:47;;;;;;;1.10;0.60;;;21.10;52.40;;;;;;6172494;28;20371;-75
2022/05/29 00:27:48;;;;;;;0.85;0.75;;;21.10;52.30;;;;;;6172724;28;20030;-75
2022/05/29 00:30:49;;;;;;;1.27;0.70;;;21.10;52.40;;;;;;6171085;28;20033;-74
2022/05/29 00:33:50;;;;;;;0.57;0.57;;;21.10;52.50;;;;;;6169332;28;20077;-75
2022/05/29 00:36:50;;;;;;;1.38;0.60;;;21.10;52.40;;;;;;6172381;28;20074;-74
2022/05/29 00:39:53;;;;;;;1.48;0.90;;;21.10;52.40;;;;;;6171115;28;20023;-74
2022/05/29 00:42:53;;;;;;;1.27;0.70;;;21.10;52.40;;;;;;6155353;28;20097;-74
2022/05/29 00:46:00;;;;;;;0.95;0.70;;;21.10;52.40;;;;;;6172090;28;20031;-75
2022/05/29 00:49:07;;;;;;;0.95;0.70;;;21.10;52.40;;;;;;6172039;28;20042;-74
2022/05/29 00:52:16;;;;;;;1.00;0.70;;;21.10;52.50;;;;;;6175662;28;20129;-75
2022/05/29 00:55:26;;;;;;;0.85;0.60;;;21.10;52.40;;;;;;6193170;28;20055;-74
2022/05/29 00:58:27;;;;;;;0.98;0.70;;;21.10;52.40;;;;;;6195061;28;20026;-74
2022/05/29 01:01:29;;;;;;;0.70;0.55;;;21.10;52.40;;;;;;6196041;28;20114;-74
2022/05/29 01:04:32;;;;;;;1.48;0.70;;;21.10;52.40;;;;;;6195851;28;20042;-75
2022/05/29 01:07:34;;;;;;;1.17;0.60;;;21.10;52.40;;;;;;6195853;28;20034;-75
2022/05/29 01:10:49;;;;;;;0.57;0.52;;;21.10;52.40;;;;;;6196087;28;20026;-75
2022/05/29 01:14:19;;;;;;;0.55;0.50;;;21.10;52.50;;;;;;6178557;28;20022;-75
2022/05/29 01:17:48;;;;;;;1.52;0.80;;;21.10;52.50;;;;;;6195814;28;20030;-75
2022/05/29 01:21:18;;;;;;;1.27;0.73;;;21.10;52.50;;;;;;6194472;28;20607;-75
2022/05/29 01:24:21;;;;;;;1.33;0.70;;;21.10;52.60;;;;;;6195555;28;20035;-74
2022/05/29 01:27:50;;;;;;;0.52;0.47;;;21.10;52.50;;;;;;6195658;28;20507;-74
2022/05/29 01:31:33;;;;;;;1.13;0.60;;;21.10;52.50;;;;;;6194338;28;20450;-75
2022/05/29 01:34:35;;;;;;;0.63;0.50;;;21.10;52.50;;;;;;6177757;28;20066;-75
2022/05/29 01:37:50;;;;;;;0.77;0.68;;;21.10;52.40;;;;;;6194992;28;20057;-74
2022/05/29 01:40:57;;;;;;;0.90;0.68;;;21.10;52.40;;;;;;6173750;28;20030;-75
2022/05/29 01:44:16;;;;;;;0.75;0.50;;;21.10;52.50;;;;;;6171435;28;20109;-75
2022/05/29 01:47:24;;;;;;;0.57;0.50;;;21.10;52.40;;;;;;6171711;28;20030;-75
2022/05/29 01:50:33;;;;;;;0.50;0.47;;;21.10;52.40;;;;;;6170718;28;20031;-75
2022/05/29 01:53:40;;;;;;;0.70;0.50;;;21.10;52.50;;;;;;6184524;28;20061;-75
2022/05/29 01:56:50;;;;;;;0.73;0.70;;;21.10;52.50;;;;;;6195173;28;20030;-75
2022/05/29 02:00:11;;;;;;;1.02;0.70;;;21.10;52.50;;;;;;6195475;28;20109;-75
2022/05/29 02:03:18;;;;;;;0.60;0.50;;;21.10;52.50;;;;;;6182668;28;20038;-74
2022/05/29 02:06:26;;;;;;;0.60;0.60;;;21.10;52.50;;;;;;6199998;28;20038;-75
2022/05/29 02:09:43;;;;;;;0.55;0.55;;;21.10;52.50;;;;;;6198519;28;20030;-75
2022/05/29 02:13:00;;;;;;;1.45;0.70;;;21.10;52.40;;;;;;6182225;28;20081;-74
2022/05/29 02:16:05;;;;;;;1.20;0.80;;;21.10;52.40;;;;;;6199840;28;20038;-75
2022/05/29 02:19:33;;;;;;;0.57;0.57;;;21.10;52.40;;;;;;6199939;28;20041;-77
2022/05/29 02:22:35;;;;;;;0.57;0.55;;;21.10;52.50;;;;;;6195048;28;20034;-74
2022/05/29 02:25:38;;;;;;;0.77;0.55;;;21.10;52.40;;;;;;6196477;28;20133;-75
2022/05/29 02:28:43;;;;;;;1.40;0.73;;;21.10;52.50;;;;;;6199557;28;20424;-75
2022/05/29 02:32:25;;;;;;;0.50;0.50;;;21.10;52.60;;;;;;6186091;28;20062;-74
2022/05/29 02:35:52;;;;;;;1.45;0.80;;;21.10;52.60;;;;;;6175344;28;20031;-75
2022/05/29 02:39:19;;;;;;;0.75;0.60;;;21.10;52.50;;;;;;6167180;28;20043;-74
2022/05/29 02:42:46;;;;;;;0.98;0.65;;;21.10;52.60;;;;;;6175172;28;20019;-74
2022/05/29 02:46:25;;;;;;;0.40;0.40;;;21.10;52.40;;;;;;6174902;28;20041;-75
2022/05/29 02:49:34;;;;;;;0.73;0.50;;;21.10;52.50;;;;;;6145564;28;20101;-75
2022/05/29 02:52:35;;;;;;;1.80;0.68;;;21.10;52.40;;;;;;6181290;28;20034;-75
2022/05/29 02:55:36;;;;;;;0.98;0.70;;;21.10;52.50;;;;;;6199343;28;20030;-75
2022/05/29 02:58:39;;;;;;;0.40;0.40;;;21.10;52.50;;;;;;6181660;28;20117;-75
2022/05/29 03:02:12;;;;;;;0.70;0.60;;;21.10;52.50;;;;;;6198900;28;20038;-75
2022/05/29 03:05:39;;;;;;;0.85;0.68;;;21.10;52.40;;;;;;6182634;28;20046;-75
2022/05/29 03:08:51;;;;;;;0.50;0.50;;;21.10;52.60;;;;;;6198394;28;20493;-74
2022/05/29 03:11:52;;;;;;;0.90;0.63;;;21.10;52.60;;;;;;6180906;28;20085;-74
2022/05/29 03:15:19;;;;;;;0.50;0.50;;;21.10;52.50;;;;;;6198536;28;20027;-74
2022/05/29 03:18:50;;;;;;;0.82;0.63;;;21.10;52.60;;;;;;6180574;28;20038;-75
2022/05/29 03:22:17;;;;;;;0.57;0.55;;;21.10;52.60;;;;;;6196709;28;20493;-75
2022/05/29 03:25:44;;;;;;;0.60;0.60;;;21.10;52.50;;;;;;6195028;28;20125;-75
2022/05/29 03:28:52;;;;;;;1.23;0.55;;;21.10;52.60;;;;;;6198168;28;20026;-74
2022/05/29 03:31:53;;;;;;;0.73;0.55;;;21.10;52.50;;;;;;6197543;28;20443;-75
2022/05/29 03:34:54;;;;;;;0.75;0.50;;;21.10;52.40;;;;;;6197893;28;20038;-75
2022/05/29 03:37:55;;;;;;;0.70;0.70;;;21.10;52.50;;;;;;6197891;28;20073;-75
2022/05/29 03:40:56;;;;;;;0.50;0.50;;;21.10;52.60;;;;;;6197893;28;20105;-74
2022/05/29 03:43:56;;;;;;;0.70;0.57;;;21.10;52.60;;;;;;6198034;28;20035;-75
2022/05/29 03:46:57;;;;;;;0.55;0.50;;;21.10;52.50;;;;;;6196574;28;20109;-74
2022/05/29 03:49:57;;;;;;;0.32;0.32;;;21.10;52.50;;;;;;6197911;28;20030;-74
2022/05/29 03:53:00;;;;;;;1.05;0.68;;;21.10;52.70;;;;;;6196046;28;20073;-74
2022/05/29 03:56:00;;;;;;;1.48;0.70;;;21.10;52.60;;;;;;6197593;28;20081;-75
2022/05/29 03:59:01;;;;;;;1.00;0.70;;;21.10;52.60;;;;;;6197676;28;20022;-74
2022/05/29 04:02:02;;;;;;;0.50;0.43;;;21.10;52.60;;;;;;6197588;28;20045;-75
2022/05/29 04:05:03;;;;;;;0.85;0.60;;;21.10;52.60;;;;;;6179600;28;20370;-74
2022/05/29 04:14:43;;;;;;;0.75;0.75;;;21.10;52.60;;;;;;6196954;28;20034;-75
2022/05/29 04:17:44;;;;;;;0.65;0.50;;;21.10;52.60;;;;;;6179774;28;20117;-75
2022/05/29 04:20:45;;;;;;;0.60;0.50;;;21.10;52.60;;;;;;6197077;28;20484;-75
2022/05/29 04:23:45;;;;;;;1.17;0.57;;;21.10;52.50;;;;;;6196574;28;20050;-75
2022/05/29 04:26:47;;;;;;;0.73;0.60;;;21.10;52.60;;;;;;6179167;28;20026;-75
2022/05/29 04:29:48;;;;;;;0.45;0.40;;;21.10;52.60;;;;;;6196468;28;20476;-74
2022/05/29 04:33:00;;;;;;;0.70;0.60;;;21.10;52.60;;;;;;6172580;28;20070;-75
2022/05/29 04:36:01;;;;;;;0.45;0.35;;;21.10;52.60;;;;;;6172468;28;20382;-74
2022/05/29 04:39:02;;;;;;;0.93;0.50;;;21.10;52.50;;;;;;6155079;28;20085;-74
2022/05/29 04:42:06;;;;;;;0.68;0.50;;;21.10;52.50;;;;;;6172757;28;20023;-75
2022/05/29 04:45:07;;;;;;;0.70;0.60;;;21.10;52.50;;;;;;6172335;28;20187;-74
2022/05/29 04:48:08;;;;;;;0.52;0.52;;;21.10;52.60;;;;;;6172121;28;20083;-74
2022/05/29 04:51:09;;;;;;;0.60;0.40;;;21.10;52.50;;;;;;6172062;28;20120;-74
2022/05/29 04:54:11;;;;;;;0.82;0.52;;;21.00;52.50;;;;;;6191582;28;20406;-75
2022/05/29 04:57:12;;;;;;;0.60;0.47;;;21.10;52.50;;;;;;6178856;28;20496;-74
2022/05/29 05:00:43;;;;;;;0.63;0.50;;;21.10;52.50;;;;;;6195952;28;20026;-76
2022/05/29 05:03:44;;;;;;;0.77;0.40;;;21.10;52.50;;;;;;6172137;28;20030;-75
2022/05/29 05:06:44;;;;;;;0.68;0.40;;;21.00;52.40;;;;;;6170687;28;20503;-74
2022/05/29 05:09:45;;;;;;;0.52;0.50;;;21.10;52.50;;;;;;6171624;28;20035;-74
2022/05/29 05:12:46;;;;;;;0.88;0.50;;;21.10;52.60;;;;;;6155050;28;20663;-75
2022/05/29 05:15:46;;;;;;;0.70;0.50;;;21.10;52.70;;;;;;6170420;28;20019;-75
2022/05/29 05:18:47;;;;;;;0.70;0.60;;;21.10;52.60;;;;;;6171800;28;20077;-75
2022/05/29 05:21:48;;;;;;;0.52;0.50;;;21.10;52.60;;;;;;6169931;28;20393;-74
2022/05/29 05:24:49;;;;;;;0.50;0.50;;;21.10;52.70;;;;;;6171741;28;20055;-75
2022/05/29 05:27:49;;;;;;;0.45;0.40;;;21.00;52.60;;;;;;6171704;28;20114;-74
2022/05/29 05:30:50;;;;;;;0.52;0.50;;;21.10;52.60;;;;;;6170318;28;20030;-75
2022/05/29 05:33:51;;;;;;;0.80;0.50;;;21.10;52.60;;;;;;6171100;28;20051;-74
2022/05/29 05:36:52;;;;;;;1.38;0.52;;;21.10;52.70;;;;;;6175045;28;20038;-74
2022/05/29 05:39:53;;;;;;;0.43;0.35;;;21.10;52.60;;;;;;6158787;28;20075;-74
2022/05/29 05:42:53;;;;;;;0.20;0.20;;;21.10;52.60;;;;;;6176431;28;20023;-75
2022/05/29 05:45:55;;;;;;;1.33;0.60;;;21.10;52.70;;;;;;6176210;28;20031;-75
2022/05/29 05:48:57;;;;;;;1.15;0.57;;;21.10;52.70;;;;;;6176210;28;20371;-75
2022/05/29 05:51:59;;;;;;;0.20;0.20;;;21.10;52.70;;;;;;6176808;28;20092;-75
2022/05/29 05:54:59;;;;;;;0.47;0.30;;;21.10;52.70;;;;;;6200085;28;20547;-74
2022/05/29 05:58:00;;;;;;;0.90;0.40;;;21.10;52.70;;;;;;6182672;28;20031;-75
2022/05/29 06:01:06;;;;;;;0.50;0.50;;;21.10;52.70;;;;;;6198745;28;20369;-75
2022/05/29 06:04:07;;;;;;;1.45;0.65;;;21.10;52.60;;;;;;6199871;28;20084;-75
2022/05/29 06:07:09;;;;;;;0.50;0.40;;;21.10;52.70;;;;;;6199831;28;20038;-74
2022/05/29 06:10:10;;;;;;;1.02;0.55;;;21.00;52.60;;;;;;6199993;28;20374;-76
2022/05/29 06:13:11;;;;;;;0.60;0.52;;;21.10;52.70;;;;;;6200133;28;20093;-74
2022/05/29 06:16:12;;;;;;;1.08;0.57;;;21.10;52.70;;;;;;6182315;28;20018;-74
2022/05/29 06:19:12;;;;;;;0.55;0.40;;;21.00;52.60;;;;;;6198262;28;20064;-74
2022/05/29 06:22:13;;;;;;;0.52;0.50;;;21.00;52.60;;;;;;6199708;28;20034;-74
2022/05/29 06:25:13;;;;;;;0.40;0.40;;;21.00;52.60;;;;;;6199486;28;20042;-75
2022/05/29 06:28:14;;;;;;;0.47;0.47;;;21.00;52.60;;;;;;6199426;28;20022;-74
2022/05/29 06:31:14;;;;;;;0.80;0.60;;;21.00;52.60;;;;;;6197734;28;20107;-74
2022/05/29 06:34:15;;;;;;;0.52;0.50;;;21.10;52.70;;;;;;6199509;28;20055;-75
2022/05/29 06:37:15;;;;;;;0.63;0.43;;;21.00;52.60;;;;;;6198059;28;20018;-75
2022/05/29 06:40:16;;;;;;;0.30;0.30;;;21.00;52.60;;;;;;6168214;28;20086;-74
2022/05/29 06:43:17;;;;;;;1.83;0.80;;;21.00;52.60;;;;;;6148379;28;20030;-75
2022/05/29 06:46:19;;;;;;;0.63;0.50;;;21.00;51.80;;;;;;6191715;28;20034;-74
2022/05/29 06:49:20;;;;;;;2.63;0.90;;;21.00;51.70;;;;;;6182360;28;20482;-75
2022/05/29 06:52:21;;;;;;;6.32;1.23;;;21.00;51.70;;;;;;6179884;28;20031;-75
2022/05/29 06:55:21;;;;;;;7.75;1.20;;;21.00;51.20;;;;;;6182808;28;20229;-75
2022/05/29 06:58:23;;;;;;;2.65;0.90;;;21.00;51.10;;;;;;6188019;28;20030;-76
2022/05/29 07:08:02;;;;;;;6.70;1.52;;;21.00;51.30;;;;;;6173938;28;20031;-75
2022/05/29 07:11:07;;;;;;;5.90;1.02;;;20.90;52.10;;;;;;6177345;28;20031;-75
2022/05/29 07:14:08;;;;;;;;;;;20.90;51.40;;;;;;6172926;28;20109;-74
2022/05/29 07:17:08;;;;;;;3.13;1.00;;;20.90;50.20;;;;;;6155376;28;19937;-76
2022/05/29 07:20:10;;;;;;;6.20;1.88;;;20.90;50.30;;;;;;6155490;28;20034;-74
2022/05/29 07:23:10;;;;;;;6.13;1.77;;;21.00;49.40;;;;;;6172077;28;20461;-75
2022/05/29 07:26:11;;;;;;;4.22;1.48;;;21.00;49.10;;;;;;6172803;28;20045;-75
2022/05/29 07:29:12;;;;;;;3.15;1.30;;;21.00;49.20;;;;;;6171974;28;20027;-75
2022/05/29 07:32:12;;;;;;;4.55;1.50;;;21.00;49.40;;;;;;6188177;28;20054;-75
2022/05/29 07:35:16;;;;;;;4.57;1.25;;;21.00;49.80;;;;;;6196129;28;20030;-74
2022/05/29 07:38:17;;;;;;;4.53;1.27;;;21.00;50.00;;;;;;6195024;28;20440;-75
2022/05/29 07:44:36;;;;;;;5.93;1.23;;;21.00;50.20;;;;;;6177045;28;20034;-73
2022/05/29 07:47:44;;;;;;;5.13;1.38;;;21.00;50.10;;;;;;6171950;28;20030;-75
2022/05/29 07:50:45;;;;;;;3.08;1.15;;;21.00;49.90;;;;;;6184557;28;20052;-74
2022/05/29 07:53:45;;;;;;;4.13;1.42;;;21.00;50.50;;;;;;6195683;28;20037;-75
2022/05/29 07:56:46;;;;;;;3.67;1.20;;;21.00;50.80;;;;;;6195861;28;20031;-75
2022/05/29 07:59:47;;;;;;;2.70;1.00;;;21.00;51.00;;;;;;6163247;28;20081;-75
2022/05/29 08:02:48;;;;;;;2.90;1.00;;;21.00;51.00;;;;;;6171357;28;20023;-75
2022/05/29 08:05:48;;;;;;;5.22;1.15;;;21.00;51.10;;;;;;6154492;28;20042;-75
2022/05/29 08:08:49;;;;;;;2.17;0.98;;;21.00;51.20;;;;;;6154051;28;20033;-74
2022/05/29 08:11:50;;;;;;;2.60;0.90;;;21.00;51.20;;;;;;6162506;28;20034;-75
2022/05/29 08:14:50;;;;;;;3.90;0.90;;;21.00;51.20;;;;;;6153995;28;20059;-75
2022/05/29 08:17:51;;;;;;;1.95;0.88;;;21.00;51.40;;;;;;6171384;28;20197;-76
2022/05/29 08:20:52;;;;;;;2.70;1.10;;;21.00;51.00;;;;;;6165586;28;20643;-75
2022/05/29 08:30:43;;;;;;;1.75;0.77;;;21.00;51.30;;;;;;6140288;28;20031;-74
2022/05/29 08:33:46;;;;;;;2.38;0.93;;;21.00;51.30;;;;;;6175590;28;20124;-76
2022/05/29 08:36:46;;;;;;;2.15;0.80;;;21.00;51.40;;;;;;6182228;28;20039;-75
2022/05/29 08:39:47;;;;;;;1.98;0.90;;;21.00;51.50;;;;;;6167080;28;20077;-75
2022/05/29 08:42:49;;;;;;;2.42;0.80;;;21.00;51.50;;;;;;6188789;28;20030;-75
2022/05/29 08:45:51;;;;;;;1.63;0.82;;;21.00;51.50;;;;;;6165662;28;20152;-75
2022/05/29 08:48:53;;;;;;;1.70;0.70;;;21.00;51.50;;;;;;6185375;28;20026;-75
2022/05/29 08:52:16;;;;;;;2.15;0.70;;;21.00;51.50;;;;;;6175144;28;21469;-75
2022/05/29 08:55:27;;;;;;;2.45;1.00;;;21.00;51.50;;;;;;6184020;28;20520;-74
2022/05/29 08:58:54;;;;;;;1.90;0.77;;;21.00;51.60;;;;;;6192377;28;20026;-75
2022/05/29 09:02:19;;;;;;;1.98;0.80;;;21.00;51.50;;;;;;6176811;28;20653;-74
2022/05/29 09:05:46;;;;;;;2.17;0.73;;;21.00;51.60;;;;;;6176802;28;20088;-74
2022/05/29 09:09:25;;;;;;;2.53;0.90;;;21.00;51.50;;;;;;6194104;28;20534;-75
2022/05/29 09:12:41;;;;;;;0.90;0.63;;;21.00;51.60;;;;;;6190688;28;20042;-75
2022/05/29 09:15:44;;;;;;;1.08;0.63;;;21.00;51.60;;;;;;6193346;28;20018;-75
2022/05/29 09:19:01;;;;;;;1.77;0.80;;;21.00;51.50;;;;;;6172950;28;20023;-74
2022/05/29 09:22:12;;;;;;;1.52;0.75;;;21.00;51.60;;;;;;6175438;28;20125;-74
2022/05/29 09:25:22;;;;;;;1.38;0.70;;;21.00;51.60;;;;;;6193955;28;20162;-74
2022/05/29 09:28:35;;;;;;;1.67;0.70;;;21.00;51.60;;;;;;6194534;28;20034;-73
2022/05/29 09:31:38;;;;;;;4.32;0.90;;;21.00;51.60;;;;;;6182061;28;20030;-75
2022/05/29 09:34:38;;;;;;;1.70;0.80;;;21.00;51.60;;;;;;6164958;28;20090;-76
2022/05/29 09:37:57;;;;;;;2.55;0.88;;;21.00;51.60;;;;;;6166327;28;20030;-75
2022/05/29 09:41:26;;;;;;;2.17;0.90;;;21.00;51.60;;;;;;6165066;28;20023;-75
2022/05/29 09:44:27;;;;;;;1.42;0.65;;;21.00;51.60;;;;;;6169696;28;20592;-76
2022/05/29 09:50:56;;;;;;;1.55;0.77;;;21.10;51.70;;;;;;6183855;28;20125;-76
2022/05/29 09:54:04;;;;;;;3.72;0.85;;;21.00;51.70;;;;;;6179779;28;20030;-77
2022/05/29 09:57:07;;;;;;;2.25;0.70;;;21.10;51.70;;;;;;6169589;28;20473;-77
2022/05/29 10:00:24;;;;;;;0.85;0.52;;;21.00;51.60;;;;;;6166353;28;20450;-76
2022/05/29 10:03:31;;;;;;;1.67;0.70;;;21.10;51.80;;;;;;6184100;28;20026;-76
2022/05/29 10:06:42;;;;;;;7.18;0.68;;;21.00;51.70;;;;;;6193282;28;20042;-76
2022/05/29 10:09:55;;;;;;;5.85;0.70;;;21.10;51.80;;;;;;6194145;28;20057;-76
2022/05/29 10:12:58;;;;;;;2.35;0.70;;;21.10;51.80;;;;;;6193371;28;20105;-76
2022/05/29 10:15:58;;;;;;;2.90;0.55;;;21.10;51.80;;;;;;6193368;28;20078;-76
2022/05/29 10:18:59;;;;;;;1.30;0.68;;;21.10;51.80;;;;;;6193687;28;20034;-76
2022/05/29 10:22:03;;;;;;;1.33;0.70;;;21.10;51.80;;;;;;6193733;28;20690;-76
2022/05/29 10:25:15;;;;;;;1.73;0.60;;;21.10;51.80;;;;;;6198028;28;20042;-76
2022/05/29 10:28:16;;;;;;;1.10;0.77;;;21.10;51.80;;;;;;6197576;28;20516;-77
2022/05/29 10:31:38;;;;;;;6.32;0.68;;;21.10;51.90;;;;;;6188078;28;20027;-76
2022/05/29 10:34:40;;;;;;;6.97;0.68;;;21.10;51.80;;;;;;6189342;28;20039;-76
2022/05/29 10:37:43;;;;;;;3.80;0.75;;;21.10;51.90;;;;;;6196710;28;20058;-76
2022/05/29 10:40:47;;;;;;;0.80;0.60;;;21.10;51.90;;;;;;6194319;28;20034;-77
2022/05/29 10:43:54;;;;;;;2.53;0.70;;;21.10;51.90;;;;;;6196227;28;20037;-77
2022/05/29 10:47:04;;;;;;;1.73;0.60;;;21.10;51.90;;;;;;6177619;28;20026;-77
2022/05/29 10:50:14;;;;;;;1.58;0.80;;;21.10;51.90;;;;;;6195294;28;20030;-76
2022/05/29 10:53:27;;;;;;;2.05;1.00;;;21.10;51.90;;;;;;6197107;28;20050;-76
2022/05/29 10:56:59;;;;;;;4.97;0.75;;;21.10;51.90;;;;;;6166245;28;20042;-77
2022/05/29 11:00:26;;;;;;;1.50;0.57;;;21.10;51.90;;;;;;6172542;28;20042;-76
2022/05/29 11:03:35;;;;;;;1.73;0.40;;;21.10;51.90;;;;;;6134571;28;20069;-76
2022/05/29 11:06:45;;;;;;;1.70;0.40;;;21.10;52.00;;;;;;6194990;28;20048;-76
2022/05/29 11:09:52;;;;;;;1.95;0.68;;;21.10;51.90;;;;;;6197053;28;20030;-77
2022/05/29 11:13:11;;;;;;;1.75;0.57;;;21.10;51.90;;;;;;6159324;28;20050;-76
2022/05/29 11:16:24;;;;;;;2.28;0.50;;;21.00;51.90;;;;;;6172642;28;20031;-76
2022/05/29 11:19:50;;;;;;;0.70;0.35;;;21.10;52.00;;;;;;6172478;28;20035;-76
2022/05/29 11:23:16;;;;;;;1.20;0.60;;;21.10;52.00;;;;;;6170042;28;20026;-76
2022/05/29 11:26:50;;;;;;;1.45;0.50;;;21.10;52.00;;;;;;6196800;28;20129;-76
2022/05/29 11:30:09;;;;;;;0.90;0.40;;;21.10;52.00;;;;;;6196547;28;20481;-77
2022/05/29 11:33:18;;;;;;;3.60;0.50;;;21.10;52.00;;;;;;6192149;28;20489;-76
2022/05/29 11:36:29;;;;;;;0.95;0.60;;;21.10;52.00;;;;;;6196438;28;20048;-76
2022/05/29 11:39:47;;;;;;;1.63;0.50;;;21.10;52.00;;;;;;6178718;28;20026;-76
2022/05/29 11:43:20;;;;;;;2.67;0.77;;;21.10;52.00;;;;;;6166517;28;20038;-76
2022/05/29 11:53:39;;;;;;;1.95;0.52;;;21.10;52.00;;;;;;6195964;28;20031;-79
2022/05/29 11:56:44;;;;;;;1.55;0.47;;;21.10;52.00;;;;;;6195156;28;20022;-76
2022/05/29 12:00:08;;;;;;;1.95;0.57;;;21.10;52.00;;;;;;6143946;29;20599;-76
2022/05/29 12:03:27;;;;;;;1.90;0.40;;;21.10;52.00;;;;;;6130026;29;20077;-76
2022/05/29 12:06:45;;;;;;;2.20;0.52;;;21.10;52.10;;;;;;6112379;29;20042;-77
2022/05/29 12:09:57;;;;;;;0.88;0.40;;;21.10;52.10;;;;;;6143838;29;20070;-77
2022/05/29 12:13:05;;;;;;;4.82;0.52;;;21.10;51.90;;;;;;6133617;29;20086;-76
2022/05/29 12:16:11;;;;;;;2.60;0.47;;;21.10;51.90;;;;;;6143802;29;20086;-76
2022/05/29 12:19:18;;;;;;;5.90;0.82;;;21.10;51.90;;;;;;6143607;29;20035;-76
2022/05/29 12:22:26;;;;;;;6.05;0.90;;;21.10;52.10;;;;;;6134761;28;20028;-76
2022/05/29 12:25:42;;;;;;;1.63;0.50;;;21.20;51.90;;;;;;6135792;29;20099;-77
2022/05/29 12:28:53;;;;;;;6.03;0.88;;;21.20;52.10;;;;;;6119762;29;20031;-76
2022/05/29 12:32:02;;;;;;;3.08;0.60;;;21.10;51.90;;;;;;6168917;28;20027;-76
2022/05/29 12:35:12;;;;;;;1.48;0.55;;;21.10;51.90;;;;;;6149448;28;20125;-76
2022/05/29 12:38:22;;;;;;;4.32;0.98;;;21.10;52.00;;;;;;6170635;28;20030;-76
2022/05/29 12:42:00;;;;;;;1.70;0.70;;;21.10;52.00;;;;;;6152986;28;20081;-76
2022/05/29 12:45:11;;;;;;;7.20;0.88;;;21.10;52.10;;;;;;6168131;28;20041;-76
2022/05/29 12:48:52;;;;;;;3.92;0.60;;;21.10;52.10;;;;;;6169729;28;20045;-76
2022/05/29 12:52:00;;;;;;;1.88;0.50;;;21.10;52.10;;;;;;6190955;28;20030;-76
2022/05/29 12:55:34;;;;;;;1.25;0.38;;;21.10;52.20;;;;;;6169711;28;20038;-75
2022/05/29 12:58:51;;;;;;;2.75;0.70;;;21.10;52.20;;;;;;6169805;28;20113;-76
2022/05/29 13:02:09;;;;;;;1.52;0.43;;;21.10;52.20;;;;;;6152219;28;20034;-76
2022/05/29 13:05:42;;;;;;;1.58;0.50;;;21.10;52.20;;;;;;6169095;28;20107;-76
2022/05/29 13:09:02;;;;;;;1.33;0.50;;;21.10;52.20;;;;;;6163932;28;20041;-76
2022/05/29 13:12:11;;;;;;;1.33;0.52;;;21.10;52.30;;;;;;6193533;28;20501;-75
2022/05/29 13:15:23;;;;;;;3.08;0.88;;;21.10;52.30;;;;;;6193694;28;20029;-76
2022/05/29 13:22:05;;;;;;;2.08;0.47;;;21.10;52.30;;;;;;6169036;28;21468;-76
2022/05/29 13:25:06;;;;;;;0.70;0.40;;;21.10;52.30;;;;;;6169254;28;20073;-76
2022/05/29 13:28:41;;;;;;;0.43;0.40;;;21.10;52.30;;;;;;6151860;28;20032;-76
2022/05/29 13:32:21;;;;;;;5.13;0.40;;;21.10;52.40;;;;;;6180693;28;20441;-75
2022/05/29 13:35:27;;;;;;;2.63;0.50;;;21.10;52.40;;;;;;6190770;28;20038;-76
2022/05/29 13:38:46;;;;;;;1.00;0.50;;;21.10;52.40;;;;;;6175307;28;20045;-76
2022/05/29 13:41:50;;;;;;;0.88;0.40;;;21.10;52.40;;;;;;6175184;28;20130;-76
2022/05/29 13:44:50;;;;;;;0.43;0.30;;;21.10;52.40;;;;;;6174683;28;20089;-76
2022/05/29 13:48:10;;;;;;;2.38;0.65;;;21.10;52.40;;;;;;6192909;28;20058;-76
2022/05/29 13:51:28;;;;;;;1.02;0.45;;;21.10;52.40;;;;;;6175410;28;20023;-76
2022/05/29 13:54:30;;;;;;;0.77;0.50;;;21.10;52.40;;;;;;6145713;28;20029;-77
2022/05/29 14:05:06;;;;;;;0.85;0.30;;;21.10;52.50;;;;;;6174369;28;20035;-77
2022/05/29 14:08:18;;;;;;;0.63;0.30;;;21.10;52.40;;;;;;6170330;28;20021;-76
2022/05/29 14:11:20;;;;;;;0.82;0.40;;;21.00;52.40;;;;;;6172966;28;20034;-76
2022/05/29 14:14:34;;;;;;;0.50;0.40;;;21.00;52.40;;;;;;6193352;28;20036;-76
2022/05/29 14:17:41;;;;;;;1.02;0.40;;;21.00;52.40;;;;;;6186619;28;20096;-77
2022/05/29 14:21:00;;;;;;;0.50;0.32;;;21.00;52.40;;;;;;6196970;28;20037;-76
2022/05/29 14:24:40;;;;;;;0.80;0.30;;;21.00;52.40;;;;;;6195954;28;20037;-76
2022/05/29 14:28:22;;;;;;;0.80;0.40;;;21.00;52.50;;;;;;6190727;28;20109;-76
2022/05/29 14:31:38;;;;;;;0.75;0.40;;;21.00;52.40;;;;;;6185687;28;20034;-76
2022/05/29 14:35:07;;;;;;;10.00;0.52;;;21.00;52.50;;;;;;6173237;28;20413;-76
2022/05/29 14:38:24;;;;;;;0.93;0.50;;;21.00;52.40;;;;;;6173734;28;20026;-75
2022/05/29 14:41:35;;;;;;;0.60;0.30;;;21.00;52.40;;;;;;6179624;28;20019;-76
2022/05/29 14:44:47;;;;;;;0.30;0.30;;;21.00;52.40;;;;;;6172519;28;20061;-76
2022/05/29 14:48:03;;;;;;;0.77;0.30;;;21.00;52.40;;;;;;6194251;28;20503;-75
2022/05/29 14:51:17;;;;;;;1.02;0.30;;;21.00;52.50;;;;;;6196975;28;20018;-76
2022/05/29 14:54:54;;;;;;;1.33;0.43;;;21.00;52.50;;;;;;6196912;28;20025;-76
2022/05/29 14:57:56;;;;;;;2.15;0.40;;;21.00;52.50;;;;;;6174641;28;20489;-76
2022/05/29 15:01:05;;;;;;;0.50;0.32;;;21.00;52.50;;;;;;6176767;28;20022;-76
2022/05/29 15:04:07;;;;;;;0.40;0.22;;;21.00;52.60;;;;;;6196747;28;20073;-76
2022/05/29 15:10:43;;;;;;;1.55;0.40;;;21.00;52.50;;;;;;6172962;28;20027;-76
2022/05/29 15:14:02;;;;;;;0.38;0.20;;;21.00;52.60;;;;;;6196613;28;20022;-77
2022/05/29 15:17:02;;;;;;;0.28;0.28;;;21.00;52.60;;;;;;6168270;28;20034;-76
2022/05/29 15:24:08;;;;;;;0.20;0.20;;;21.00;52.60;;;;;;6162983;28;20061;-75
2022/05/29 15:26:53;;;;;;;0.90;0.32;;;21.10;52.60;;;;;;6196392;28;20117;-75
2022/05/29 15:29:53;;;;;;;0.43;0.25;;;21.10;52.60;;;;;;6196160;28;20031;-76
2022/05/29 15:33:02;;;;;;;0.40;0.30;;;21.10;52.70;;;;;;6181755;28;20046;-76
2022/05/29 15:36:19;;;;;;;0.70;0.30;;;21.10;52.60;;;;;;6193098;28;20541;-77
2022/05/29 15:39:30;;;;;;;1.35;0.40;;;21.10;52.60;;;;;;6172801;28;20027;-75
2022/05/29 15:43:14;;;;;;;0.25;0.20;;;21.00;52.60;;;;;;6183082;28;20070;-75
2022/05/29 15:46:40;;;;;;;0.40;0.30;;;21.00;52.60;;;;;;6143810;29;20161;-76
2022/05/29 15:50:12;;;;;;;0.22;0.22;;;21.10;52.70;;;;;;6128329;28;20478;-77
2022/05/29 15:53:32;;;;;;;0.68;0.30;;;21.10;52.80;;;;;;6179789;28;20031;-76
2022/05/29 15:56:38;;;;;;;0.30;0.30;;;21.10;52.70;;;;;;6173403;28;20478;-78
2022/05/29 16:00:09;;;;;;;0.32;0.30;;;21.10;52.70;;;;;;6190747;28;20030;-77
2022/05/29 16:03:13;;;;;;;1.10;0.57;;;21.10;52.90;;;;;;6184452;28;20129;-77
2022/05/29 16:06:21;;;;;;;0.75;0.40;;;21.00;52.80;;;;;;6195947;28;20081;-78
2022/05/29 16:09:22;;;;;;;1.02;0.30;;;21.10;53.00;;;;;;6173417;28;20077;-77
2022/05/29 16:12:23;;;;;;;0.35;0.30;;;21.10;52.80;;;;;;6176661;28;20113;-77
2022/05/29 16:15:36;;;;;;;0.57;0.30;;;21.00;52.70;;;;;;6194968;28;20096;-77
2022/05/29 16:19:16;;;;;;;0.25;0.20;;;21.10;52.80;;;;;;6179470;28;20117;-76
2022/05/29 16:22:46;;;;;;;0.25;0.25;;;21.00;52.70;;;;;;6170981;28;20027;-76
2022/05/29 16:26:08;;;;;;;0.88;0.20;;;21.10;52.80;;;;;;6193281;28;20076;-76
2022/05/29 16:29:14;;;;;;;1.33;0.40;;;21.00;52.70;;;;;;6194145;28;20030;-75
2022/05/29 16:32:30;;;;;;;0.22;0.22;;;21.00;52.60;;;;;;6192532;28;20057;-77
2022/05/29 16:35:50;;;;;;;0.63;0.38;;;21.10;52.80;;;;;;6171404;28;20046;-76
2022/05/29 16:49:29;;;;;;;7.47;0.55;;;21.10;52.90;;;;;;6179757;28;20077;-77
2022/05/29 16:52:30;;;;;;;2.63;0.55;;;21.20;53.10;;;;;;6175104;28;20096;-77
2022/05/29 16:55:37;;;;;;;0.28;0.28;;;21.10;53.10;;;;;;6153578;28;20027;-76
2022/05/29 16:58:50;;;;;;;7.40;0.43;;;21.10;53.10;;;;;;6170718;28;20027;-77
2022/05/29 17:01:55;;;;;;;7.25;0.50;;;21.10;53.30;;;;;;6157613;28;20084;-75
2022/05/29 17:05:09;;;;;;;5.18;0.70;;;21.10;51.60;;;;;;6193870;28;20065;-75
2022/05/29 17:08:23;;;;;;;0.80;0.30;;;21.20;51.10;;;;;;6167290;28;20375;-75
2022/05/29 17:11:25;;;;;;;0.80;0.30;;;21.30;49.70;;;;;;6186173;28;20483;-74
2022/05/29 17:14:25;;;;;;;0.47;0.30;;;21.50;49.20;;;;;;6194530;28;20191;-74
2022/05/29 17:17:27;;;;;;;1.50;0.30;;;21.50;49.00;;;;;;6194469;28;20030;-74
2022/05/29 17:20:28;;;;;;;0.90;0.22;;;21.60;48.70;;;;;;6188752;28;20037;-75
2022/05/29 17:23:50;;;;;;;0.95;0.28;;;21.70;48.90;;;;;;6193600;28;20042;-74
2022/05/29 17:27:03;;;;;;;0.85;0.40;;;21.40;50.30;;;;;;6193889;28;20104;-74
2022/05/29 17:30:11;;;;;;;1.55;0.30;;;21.30;51.40;;;;;;6194287;28;20659;-74